createdAt,value
2022-10-09T00:01:10.141Z,102436.25
2022-10-09T00:03:38.660Z,102436.88
2022-10-09T00:06:07.486Z,102438.44
2022-10-09T00:08:35.197Z,102433.84
2022-10-09T00:11:14.444Z,102440.19
2022-10-09T00:13:40.966Z,102432.19
2022-10-09T00:16:12.359Z,102430.59
2022-10-09T00:18:40.143Z,102433.47
2022-10-09T00:21:24.827Z,102439.97
2022-10-09T00:23:57.595Z,102440.38
2022-10-09T00:26:24.686Z,102436.19
2022-10-09T00:28:51.619Z,102439.13
2022-10-09T00:31:18.623Z,102433.19
2022-10-09T00:33:51.463Z,102438.03
2022-10-09T00:36:20.707Z,102428.44
2022-10-09T00:38:47.766Z,102440.25
2022-10-09T00:41:17.173Z,102438.59
2022-10-09T00:44:02.125Z,102439.63
2022-10-09T00:46:51.333Z,102440.66
2022-10-09T00:49:33.807Z,102429.22
2022-10-09T00:52:03.286Z,102441.16
2022-10-09T00:54:39.662Z,102437.75
2022-10-09T00:57:06.939Z,102434.31
2022-10-09T00:59:33.689Z,102429.88
2022-10-09T01:02:00.364Z,102434.47
2022-10-09T01:04:27.567Z,102441.81
2022-10-09T01:07:18.430Z,102437.38
2022-10-09T01:09:54.645Z,102441.09
2022-10-09T01:12:53.797Z,102433.13
2022-10-09T01:15:21.269Z,102429.41
2022-10-09T01:18:07.084Z,102436.44
2022-10-09T01:20:56.705Z,102426.31
2022-10-09T01:24:17.582Z,102428.84
2022-10-09T01:27:00.306Z,102418.03
2022-10-09T01:29:32.216Z,102417.22
2022-10-09T01:32:01.477Z,102421.72
2022-10-09T01:34:52.590Z,102421.81
2022-10-09T01:37:21.183Z,102417.44
2022-10-09T01:39:49.165Z,102410.56
2022-10-09T01:42:18.187Z,102403.50
2022-10-09T01:44:45.862Z,102409.06
2022-10-09T01:47:17.896Z,102408.34
2022-10-09T01:49:50.224Z,102405.72
2022-10-09T01:52:38.040Z,102414.75
2022-10-09T01:55:18.931Z,102404.84
2022-10-09T01:57:52.287Z,102404.84
2022-10-09T02:00:19.518Z,102400.25
2022-10-09T02:02:48.676Z,102392.19
2022-10-09T02:05:21.182Z,102397.56
2022-10-09T02:07:47.948Z,102392.34
2022-10-09T02:10:16.832Z,102392.50
2022-10-09T02:12:53.143Z,102390.13
2022-10-09T02:15:22.479Z,102384.97
2022-10-09T02:17:53.809Z,102383.47
2022-10-09T02:20:30.252Z,102378.31
2022-10-09T02:22:58.509Z,102380.28
2022-10-09T02:25:29.261Z,102376.94
2022-10-09T02:27:56.590Z,102379.88
2022-10-09T02:30:26.229Z,102379.97
2022-10-09T02:32:54.418Z,102381.00
2022-10-09T02:35:25.054Z,102375.78
2022-10-09T02:37:51.510Z,102380.34
2022-10-09T02:40:17.976Z,102382.09
2022-10-09T02:42:44.445Z,102380.44
2022-10-09T02:45:15.041Z,102376.00
2022-10-09T02:47:41.492Z,102381.38
2022-10-09T02:50:08.497Z,102376.06
2022-10-09T02:52:34.987Z,102370.84
2022-10-09T02:55:01.499Z,102370.84
2022-10-09T02:57:27.934Z,102372.66
2022-10-09T02:59:54.388Z,102372.66
2022-10-09T03:02:20.950Z,102368.31
2022-10-09T03:04:49.309Z,102372.81
2022-10-09T03:07:15.807Z,102366.56
2022-10-09T03:09:42.814Z,102362.06
2022-10-09T03:12:09.268Z,102374.47
2022-10-09T03:14:37.303Z,102367.38
2022-10-09T03:17:03.868Z,102365.63
2022-10-09T03:19:30.315Z,102371.16
2022-10-09T03:21:56.836Z,102366.78
2022-10-09T03:24:27.761Z,102367.00
2022-10-09T03:26:54.359Z,102362.72
2022-10-09T03:29:20.916Z,102357.50
2022-10-09T03:31:52.376Z,102354.00
2022-10-09T03:34:23.866Z,102354.97
2022-10-09T03:36:50.362Z,102358.66
2022-10-09T03:39:16.811Z,102356.91
2022-10-09T03:41:43.294Z,102346.25
2022-10-09T03:44:12.848Z,102354.38
2022-10-09T03:46:39.387Z,102353.66
2022-10-09T03:49:05.983Z,102352.06
2022-10-09T03:51:32.494Z,102354.09
2022-10-09T03:54:00.304Z,102363.22
2022-10-09T03:56:26.811Z,102351.84
2022-10-09T03:58:53.444Z,102351.09
2022-10-09T04:01:19.970Z,102355.59
2022-10-09T04:03:48.393Z,102357.41
2022-10-09T04:06:15.059Z,102365.41
2022-10-09T04:08:41.538Z,102356.56
2022-10-09T04:11:08.025Z,102364.69
2022-10-09T04:13:34.525Z,102355.72
2022-10-09T04:16:02.254Z,102354.84
2022-10-09T04:18:28.768Z,102368.28
2022-10-09T04:20:56.759Z,102359.31
2022-10-09T04:23:26.042Z,102352.16
2022-10-09T04:25:54.845Z,102355.06
2022-10-09T04:28:23.254Z,102361.50
2022-10-09T04:30:49.804Z,102353.66
2022-10-09T04:33:16.298Z,102356.50
2022-10-09T04:35:46.758Z,102353.97
2022-10-09T04:38:13.227Z,102355.94
2022-10-09T04:40:39.664Z,102357.88
2022-10-09T04:43:06.307Z,102366.00
2022-10-09T04:45:32.975Z,102354.41
2022-10-09T04:47:59.636Z,102348.16
2022-10-09T04:50:26.086Z,102354.34
2022-10-09T04:52:58.482Z,102350.78
2022-10-09T04:55:26.035Z,102348.91
2022-10-09T04:57:52.517Z,102348.81
2022-10-09T05:00:19.239Z,102348.75
2022-10-09T05:02:45.941Z,102353.19
2022-10-09T05:05:14.325Z,102346.94
2022-10-09T05:07:40.782Z,102344.25
2022-10-09T05:10:07.782Z,102346.13
2022-10-09T05:12:34.434Z,102346.13
2022-10-09T05:15:00.887Z,102337.22
2022-10-09T05:17:27.928Z,102339.03
2022-10-09T05:19:54.450Z,102336.41
2022-10-09T05:22:20.924Z,102341.78
2022-10-09T05:24:51.860Z,102332.94
2022-10-09T05:27:18.387Z,102332.94
2022-10-09T05:29:44.813Z,102331.25
2022-10-09T05:32:11.335Z,102334.00
2022-10-09T05:34:40.962Z,102342.06
2022-10-09T05:37:07.546Z,102348.38
2022-10-09T05:39:35.913Z,102344.88
2022-10-09T05:42:02.436Z,102344.94
2022-10-09T05:44:33.200Z,102350.38
2022-10-09T05:46:59.714Z,102340.59
2022-10-09T05:49:26.426Z,102341.53
2022-10-09T05:51:54.565Z,102340.72
2022-10-09T05:54:21.252Z,102328.25
2022-10-09T05:56:47.853Z,102338.19
2022-10-09T05:59:19.480Z,102336.50
2022-10-09T06:01:49.132Z,102331.22
2022-10-09T06:04:21.289Z,102330.34
2022-10-09T06:06:48.715Z,102332.16
2022-10-09T06:09:25.468Z,102334.03
2022-10-09T06:11:54.961Z,102331.34
2022-10-09T06:14:24.413Z,102333.16
2022-10-09T06:16:51.226Z,102333.22
2022-10-09T06:19:19.784Z,102336.78
2022-10-09T06:21:47.680Z,102338.53
2022-10-09T06:24:23.272Z,102331.28
2022-10-09T06:26:53.720Z,102337.50
2022-10-09T06:29:20.354Z,102335.63
2022-10-09T06:31:46.892Z,102340.00
2022-10-09T06:34:16.725Z,102338.91
2022-10-09T06:36:44.250Z,102342.53
2022-10-09T06:39:11.111Z,102340.88
2022-10-09T06:41:37.601Z,102341.00
2022-10-09T06:44:24.171Z,102339.31
2022-10-09T06:46:50.648Z,102343.88
2022-10-09T06:49:17.197Z,102339.53
2022-10-09T06:51:43.718Z,102343.16
2022-10-09T06:54:15.083Z,102345.03
2022-10-09T06:56:41.622Z,102348.53
2022-10-09T06:59:10.169Z,102345.63
2022-10-09T07:01:36.638Z,102349.84
2022-10-09T07:04:07.506Z,102347.69
2022-10-09T07:06:38.043Z,102346.13
2022-10-09T07:09:07.448Z,102349.03
2022-10-09T07:11:43.236Z,102346.53
2022-10-09T07:14:13.151Z,102344.72
2022-10-09T07:16:44.465Z,102341.88
2022-10-09T07:19:12.691Z,102346.03
2022-10-09T07:21:42.110Z,102345.56
2022-10-09T07:24:12.824Z,102342.25
2022-10-09T07:26:42.943Z,102339.84
2022-10-09T07:29:11.232Z,102342.69
2022-10-09T07:31:38.488Z,102342.22
2022-10-09T07:34:09.961Z,102349.13
2022-10-09T07:36:36.662Z,102345.47
2022-10-09T07:39:04.448Z,102335.63
2022-10-09T07:41:31.373Z,102334.00
2022-10-09T07:43:59.673Z,102340.31
2022-10-09T07:46:32.139Z,102334.41
2022-10-09T07:48:59.843Z,102338.38
2022-10-09T07:51:29.050Z,102337.06
2022-10-09T07:53:57.601Z,102332.06
2022-10-09T07:56:32.336Z,102337.88
2022-10-09T07:59:01.193Z,102339.63
2022-10-09T08:01:29.382Z,102341.19
2022-10-09T08:04:01.384Z,102338.94
2022-10-09T08:06:28.432Z,102333.25
2022-10-09T08:08:57.005Z,102341.03
2022-10-09T08:11:25.529Z,102336.22
2022-10-09T08:13:56.498Z,102335.84
2022-10-09T08:16:24.281Z,102330.28
2022-10-09T08:18:55.127Z,102323.44
2022-10-09T08:21:21.577Z,102322.03
2022-10-09T08:24:09.181Z,102325.41
2022-10-09T08:26:35.660Z,102315.66
2022-10-09T08:29:04.838Z,102309.38
2022-10-09T08:31:32.283Z,102310.22
2022-10-09T08:34:02.638Z,102308.94
2022-10-09T08:36:29.769Z,102315.72
2022-10-09T08:38:56.340Z,102305.28
2022-10-09T08:41:52.039Z,102309.47
2022-10-09T08:44:39.178Z,102302.34
2022-10-09T08:47:36.198Z,102295.41
2022-10-09T08:50:43.977Z,102295.09
2022-10-09T08:53:33.597Z,102285.75
2022-10-09T08:56:06.322Z,102286.78
2022-10-09T08:58:34.634Z,102276.16
2022-10-09T09:01:12.625Z,102279.06
2022-10-09T09:04:00.875Z,102285.13
2022-10-09T09:06:47.445Z,102274.13
2022-10-09T09:09:30.367Z,102275.72
2022-10-09T09:12:17.762Z,102268.06
2022-10-09T09:15:01.281Z,102274.84
2022-10-09T09:17:27.695Z,102266.19
2022-10-09T09:20:17.255Z,102266.34
2022-10-09T09:22:48.738Z,102259.31
2022-10-09T09:25:21.444Z,102266.69
2022-10-09T09:27:48.699Z,102263.22
2022-10-09T09:30:28.438Z,102254.25
2022-10-09T09:33:04.752Z,102256.94
2022-10-09T09:35:55.569Z,102242.16
2022-10-09T09:38:22.057Z,102240.88
2022-10-09T09:40:50.662Z,102241.41
2022-10-09T09:43:23.966Z,102232.94
2022-10-09T09:45:55.595Z,102224.41
2022-10-09T09:48:33.749Z,102233.06
2022-10-09T09:51:23.527Z,102228.41
2022-10-09T09:53:57.543Z,102222.16
2022-10-09T09:59:37.828Z,102215.88
2022-10-09T10:02:14.549Z,102210.63
2022-10-09T10:04:58.171Z,102200.59
2022-10-09T10:07:38.922Z,102198.88
2022-10-09T10:10:15.213Z,102192.72
2022-10-09T10:12:48.310Z,102183.69
2022-10-09T10:15:22.378Z,102188.75
2022-10-09T10:17:54.982Z,102188.59
2022-10-09T10:20:21.577Z,102176.50
2022-10-09T10:22:53.840Z,102183.72
2022-10-09T10:25:24.737Z,102177.38
2022-10-09T10:27:57.466Z,102175.19
2022-10-09T10:30:24.091Z,102172.47
2022-10-09T10:33:10.076Z,102177.19
2022-10-09T10:35:39.915Z,102168.22
2022-10-09T10:38:31.101Z,102161.84
2022-10-09T10:41:03.549Z,102154.16
2022-10-09T10:43:42.017Z,102148.09
2022-10-09T10:46:17.262Z,102149.09
2022-10-09T10:48:46.966Z,102153.63
2022-10-09T10:51:42.936Z,102137.91
2022-10-09T10:54:39.331Z,102129.94
2022-10-09T10:57:12.463Z,102133.47
2022-10-09T10:59:46.216Z,102137.13
2022-10-09T11:02:41.128Z,102128.69
2022-10-09T11:05:25.997Z,102126.28
2022-10-09T11:08:29.913Z,102125.34
2022-10-09T11:11:33.584Z,102113.97
2022-10-09T11:14:04.682Z,102111.00
2022-10-09T11:16:56.489Z,102110.19
2022-10-09T11:19:41.706Z,102101.22
2022-10-09T11:22:27.439Z,102101.09
2022-10-09T11:25:14.687Z,102103.91
2022-10-09T11:27:55.689Z,102091.25
2022-10-09T11:30:22.492Z,102089.59
2022-10-09T11:33:24.809Z,102080.00
2022-10-09T11:36:02.008Z,102084.84
2022-10-09T11:38:36.636Z,102077.66
2022-10-09T11:41:07.363Z,102069.94
2022-10-09T11:43:42.976Z,102063.47
2022-10-09T11:46:25.762Z,102059.88
2022-10-09T11:49:12.662Z,102060.41
2022-10-09T11:52:04.211Z,102052.69
2022-10-09T11:54:35.192Z,102047.72
2022-10-09T11:57:06.314Z,102046.53
2022-10-09T11:59:42.014Z,102044.66
2022-10-09T12:02:27.748Z,102034.41
2022-10-09T12:04:59.322Z,102040.59
2022-10-09T12:07:27.850Z,102027.91
2022-10-09T12:10:00.362Z,102019.47
2022-10-09T12:12:26.823Z,102015.19
2022-10-09T12:14:56.596Z,102010.06
2022-10-09T12:17:23.002Z,102005.75
2022-10-09T12:20:00.793Z,101997.03
2022-10-09T12:23:25.325Z,101987.75
2022-10-09T12:25:48.887Z,101981.91
2022-10-09T12:28:30.566Z,101981.56
2022-10-09T12:31:00.733Z,101975.72
2022-10-09T12:33:36.730Z,101964.56
2022-10-09T12:36:11.075Z,101962.34
2022-10-09T12:38:37.613Z,101961.63
2022-10-09T12:41:06.978Z,101955.78
2022-10-09T12:43:34.513Z,101953.22
2022-10-09T12:46:02.134Z,101939.13
2022-10-09T12:48:35.434Z,101941.16
2022-10-09T12:51:01.927Z,101935.84
2022-10-09T12:53:29.006Z,101932.72
2022-10-09T12:56:00.451Z,101925.88
2022-10-09T12:58:32.129Z,101921.06
2022-10-09T13:01:05.238Z,101916.06
2022-10-09T13:03:37.099Z,101912.81
2022-10-09T13:06:26.239Z,101903.88
2022-10-09T13:08:57.060Z,101896.69
2022-10-09T13:11:26.463Z,101889.47
2022-10-09T13:13:55.556Z,101890.81
2022-10-09T13:16:23.762Z,101885.31
2022-10-09T13:18:57.151Z,101889.97
2022-10-09T13:21:29.131Z,101884.81
2022-10-09T13:24:10.811Z,101878.63
2022-10-09T13:26:39.552Z,101872.13
2022-10-09T13:29:07.361Z,101874.69
2022-10-09T13:31:36.714Z,101872.63
2022-10-09T13:34:12.322Z,101860.78
2022-10-09T13:36:39.049Z,101852.34
2022-10-09T13:39:05.585Z,101856.44
2022-10-09T13:41:33.664Z,101842.53
2022-10-09T13:44:01.892Z,101841.66
2022-10-09T13:46:28.517Z,101841.00
2022-10-09T13:48:54.998Z,101830.72
2022-10-09T13:51:21.615Z,101827.97
2022-10-09T13:53:56.831Z,101826.94
2022-10-09T13:56:24.083Z,101826.41
2022-10-09T13:58:50.589Z,101817.34
2022-10-09T14:01:17.393Z,101813.09
2022-10-09T14:03:48.107Z,101817.78
2022-10-09T14:06:14.624Z,101811.78
2022-10-09T14:08:41.160Z,101810.59
2022-10-09T14:11:07.754Z,101807.34
2022-10-09T14:13:34.288Z,101803.94
2022-10-09T14:16:05.580Z,101799.13
2022-10-09T14:18:32.126Z,101794.81
2022-10-09T14:20:58.569Z,101780.91
2022-10-09T14:23:25.266Z,101784.34
2022-10-09T14:25:51.739Z,101779.72
2022-10-09T14:28:18.496Z,101775.25
2022-10-09T14:30:45.117Z,101774.56
2022-10-09T14:33:12.835Z,101772.34
2022-10-09T14:35:39.635Z,101772.53
2022-10-09T14:38:06.150Z,101770.16
2022-10-09T14:40:32.662Z,101763.47
2022-10-09T14:42:59.114Z,101763.28
2022-10-09T14:45:25.913Z,101758.31
2022-10-09T14:47:52.388Z,101753.03
2022-10-09T14:50:18.866Z,101754.94
2022-10-09T14:52:45.322Z,101749.31
2022-10-09T14:55:12.879Z,101740.56
2022-10-09T14:57:39.375Z,101737.81
2022-10-09T15:00:06.518Z,101735.09
2022-10-09T15:02:33.088Z,101735.78
2022-10-09T15:05:00.837Z,101735.06
2022-10-09T15:07:28.130Z,101723.41
2022-10-09T15:09:56.815Z,101723.59
2022-10-09T15:12:23.450Z,101725.81
2022-10-09T15:14:49.927Z,101716.91
2022-10-09T15:17:16.401Z,101712.41
2022-10-09T15:19:42.854Z,101713.41
2022-10-09T15:22:09.333Z,101705.34
2022-10-09T15:24:40.022Z,101701.00
2022-10-09T15:27:06.481Z,101699.97
2022-10-09T15:29:32.926Z,101693.78
2022-10-09T15:31:59.392Z,101694.09
2022-10-09T15:34:30.749Z,101692.19
2022-10-09T15:36:57.203Z,101682.72
2022-10-09T15:39:23.737Z,101687.28
2022-10-09T15:41:50.229Z,101678.03
2022-10-09T15:44:20.609Z,101666.19
2022-10-09T15:46:48.381Z,101658.59
2022-10-09T15:49:15.021Z,101660.13
2022-10-09T15:51:41.795Z,101655.47
2022-10-09T15:54:11.030Z,101663.78
2022-10-09T15:56:39.908Z,101666.16
2022-10-09T15:59:07.582Z,101653.28
2022-10-09T16:01:34.199Z,101643.84
2022-10-09T16:04:03.746Z,101642.44
2022-10-09T16:06:30.468Z,101641.75
2022-10-09T16:08:58.231Z,101642.22
2022-10-09T16:11:26.640Z,101637.72
2022-10-09T16:13:59.080Z,101634.75
2022-10-09T16:16:27.267Z,101635.69
2022-10-09T16:18:54.865Z,101634.44
2022-10-09T16:21:25.539Z,101628.06
2022-10-09T16:23:58.804Z,101627.16
2022-10-09T16:26:29.014Z,101629.50
2022-10-09T16:28:55.560Z,101619.03
2022-10-09T16:31:28.154Z,101619.66
2022-10-09T16:33:58.395Z,101615.13
2022-10-09T16:36:24.934Z,101617.47
2022-10-09T16:38:51.414Z,101615.03
2022-10-09T16:41:20.604Z,101623.69
2022-10-09T16:43:51.533Z,101610.53
2022-10-09T16:49:02.691Z,101615.97
2022-10-09T16:51:35.850Z,101615.13
2022-10-09T16:54:05.424Z,101610.75
2022-10-09T16:56:35.430Z,101610.97
2022-10-09T16:59:08.865Z,101607.56
2022-10-09T17:01:37.654Z,101605.88
2022-10-09T17:04:05.856Z,101606.22
2022-10-09T17:06:32.417Z,101606.41
2022-10-09T17:08:59.483Z,101599.41
2022-10-09T17:11:28.085Z,101609.47
2022-10-09T17:13:59.214Z,101605.16
2022-10-09T17:16:28.941Z,101610.63
2022-10-09T17:18:55.712Z,101610.66
2022-10-09T17:21:22.558Z,101609.53
2022-10-09T17:23:57.856Z,101613.09
2022-10-09T17:26:25.358Z,101610.25
2022-10-09T17:28:52.613Z,101607.97
2022-10-09T17:31:21.868Z,101608.09
2022-10-09T17:33:51.251Z,101599.88
2022-10-09T17:36:20.243Z,101602.88
2022-10-09T17:38:48.363Z,101601.00
2022-10-09T17:41:17.280Z,101599.84
2022-10-09T17:43:51.368Z,101602.25
2022-10-09T17:46:19.046Z,101597.53
2022-10-09T17:48:52.102Z,101607.25
2022-10-09T17:51:34.486Z,101601.50
2022-10-09T17:54:09.532Z,101602.06
2022-10-09T17:56:39.178Z,101599.16
2022-10-09T17:59:06.012Z,101600.53
2022-10-09T18:01:32.604Z,101590.22
2022-10-09T18:04:03.905Z,101591.50
2022-10-09T18:06:33.522Z,101595.50
2022-10-09T18:09:00.694Z,101593.16
2022-10-09T18:11:28.437Z,101590.97
2022-10-09T18:13:59.039Z,101585.22
2022-10-09T18:16:35.348Z,101584.66
2022-10-09T18:19:06.099Z,101573.31
2022-10-09T18:21:34.352Z,101575.44
2022-10-09T18:24:02.734Z,101570.28
2022-10-09T18:26:29.364Z,101568.44
2022-10-09T18:28:55.850Z,101564.00
2022-10-09T18:31:23.705Z,101563.88
2022-10-09T18:33:54.398Z,101570.28
2022-10-09T18:36:25.789Z,101574.00
2022-10-09T18:38:54.946Z,101563.16
2022-10-09T18:41:23.461Z,101565.13
2022-10-09T18:43:54.241Z,101560.84
2022-10-09T18:46:25.593Z,101563.69
2022-10-09T18:48:53.959Z,101559.25
2022-10-09T18:51:23.207Z,101557.53
2022-10-09T18:53:59.863Z,101553.22
2022-10-09T18:56:29.198Z,101552.63
2022-10-09T18:58:55.760Z,101556.47
2022-10-09T19:01:22.814Z,101550.47
2022-10-09T19:03:50.671Z,101552.69
2022-10-09T19:06:18.427Z,101549.25
2022-10-09T19:08:45.390Z,101546.22
2022-10-09T19:11:14.487Z,101537.59
2022-10-09T19:13:42.413Z,101546.88
2022-10-09T19:16:13.381Z,101549.84
2022-10-09T19:18:40.302Z,101543.56
2022-10-09T19:21:07.053Z,101541.00
2022-10-09T19:23:33.737Z,101541.97
2022-10-09T19:26:00.309Z,101537.41
2022-10-09T19:28:33.089Z,101539.41
2022-10-09T19:31:02.464Z,101542.38
2022-10-09T19:33:29.162Z,101531.78
2022-10-09T19:35:57.787Z,101529.47
2022-10-09T19:38:25.362Z,101531.72
2022-10-09T19:40:52.030Z,101530.22
2022-10-09T19:43:19.930Z,101526.19
2022-10-09T19:46:00.797Z,101524.00
2022-10-09T19:48:27.284Z,101526.13
2022-10-09T19:50:53.712Z,101525.66
2022-10-09T19:53:20.169Z,101526.91
2022-10-09T19:55:46.782Z,101531.59
2022-10-09T19:58:13.236Z,101517.41
2022-10-09T20:00:44.211Z,101522.22
2022-10-09T20:03:10.786Z,101524.09
2022-10-09T20:05:38.857Z,101518.91
2022-10-09T20:08:05.851Z,101517.31
2022-10-09T20:10:35.773Z,101518.56
2022-10-09T20:13:02.715Z,101517.84
2022-10-09T20:15:29.242Z,101527.22
2022-10-09T20:17:55.803Z,101518.50
2022-10-09T20:20:22.313Z,101514.44
2022-10-09T20:22:49.025Z,101520.00
2022-10-09T20:25:19.662Z,101516.69
2022-10-09T20:27:46.154Z,101514.09
2022-10-09T20:30:13.142Z,101512.50
2022-10-09T20:32:39.597Z,101510.91
2022-10-09T20:35:10.136Z,101520.16
2022-10-09T20:37:36.632Z,101512.16
2022-10-09T20:40:03.337Z,101512.16
2022-10-09T20:42:30.942Z,101508.59
2022-10-09T20:45:01.622Z,101500.59
2022-10-09T20:47:28.111Z,101505.88
2022-10-09T20:49:54.573Z,101505.00
2022-10-09T20:52:21.199Z,101506.72
2022-10-09T20:54:48.702Z,101500.44
2022-10-09T20:57:15.173Z,101495.91
2022-10-09T20:59:41.733Z,101501.44
2022-10-09T21:02:08.300Z,101496.41
2022-10-09T21:04:35.580Z,101496.66
2022-10-09T21:07:02.064Z,101489.66
2022-10-09T21:09:32.978Z,101488.06
2022-10-09T21:11:59.796Z,101481.91
2022-10-09T21:14:27.636Z,101478.72
2022-10-09T21:16:54.094Z,101480.81
2022-10-09T21:19:20.632Z,101479.22
2022-10-09T21:21:50.844Z,101476.81
2022-10-09T21:24:21.759Z,101467.25
2022-10-09T21:26:48.338Z,101462.06
2022-10-09T21:29:14.838Z,101467.63
2022-10-09T21:31:42.105Z,101460.59
2022-10-09T21:34:13.051Z,101462.56
2022-10-09T21:37:20.468Z,101467.38
2022-10-09T21:39:33.624Z,101460.63
2022-10-09T21:42:00.081Z,101461.72
2022-10-09T21:44:28.640Z,101458.28
2022-10-09T21:46:55.113Z,101454.97
2022-10-09T21:49:24.059Z,101460.50
2022-10-09T21:51:50.790Z,101456.22
2022-10-09T21:54:17.954Z,101453.50
2022-10-09T21:56:44.486Z,101458.06
2022-10-09T21:59:11.254Z,101449.81
2022-10-09T22:01:38.452Z,101448.69
2022-10-09T22:04:09.280Z,101450.28
2022-10-09T22:06:35.757Z,101443.91
2022-10-09T22:09:02.307Z,101450.16
2022-10-09T22:11:28.810Z,101447.47
2022-10-09T22:13:59.897Z,101442.06
2022-10-09T22:16:26.490Z,101441.19
2022-10-09T22:18:53.468Z,101438.34
2022-10-09T22:21:19.986Z,101445.63
2022-10-09T22:23:50.083Z,101432.09
2022-10-09T22:26:19.757Z,101437.50
2022-10-09T22:28:47.355Z,101435.78
2022-10-09T22:31:23.816Z,101424.09
2022-10-09T22:34:01.581Z,101419.78
2022-10-09T22:36:30.666Z,101418.94
2022-10-09T22:38:58.830Z,101413.66
2022-10-09T22:41:27.209Z,101416.47
2022-10-09T22:43:57.454Z,101413.03
2022-10-09T22:46:30.749Z,101414.03
2022-10-09T22:48:57.985Z,101413.91
2022-10-09T22:51:26.013Z,101412.19
2022-10-09T22:53:58.533Z,101414.16
2022-10-09T22:56:32.367Z,101407.00
2022-10-09T22:58:59.091Z,101409.72
2022-10-09T23:01:41.829Z,101403.69
2022-10-09T23:04:14.563Z,101400.50
2022-10-09T23:06:42.195Z,101411.56
2022-10-09T23:09:12.108Z,101407.41
2022-10-09T23:11:38.607Z,101404.81
2022-10-09T23:14:11.283Z,101403.09
2022-10-09T23:16:38.226Z,101395.09
2022-10-09T23:19:07.046Z,101396.97
2022-10-09T23:21:37.840Z,101391.66
2022-10-09T23:24:08.677Z,101392.78
2022-10-09T23:26:36.922Z,101385.53
2022-10-09T23:29:08.981Z,101389.34
2022-10-09T23:31:36.441Z,101379.38
2022-10-09T23:34:05.360Z,101384.91
2022-10-09T23:36:32.148Z,101376.94
2022-10-09T23:39:01.097Z,101374.34
2022-10-09T23:41:28.753Z,101377.03
2022-10-09T23:43:56.577Z,101384.31
2022-10-09T23:46:29.344Z,101383.41
2022-10-09T23:48:55.986Z,101380.69
2022-10-09T23:51:24.227Z,101378.00
2022-10-09T23:53:55.008Z,101374.56
2022-10-09T23:56:27.853Z,101375.53
2022-10-09T23:58:55.655Z,101375.66
